Decoded Metar for LEHC (HUESCA in SPAIN) (IATA:N/A) | Meteo·Mobile Aviation Weather
aviador You're here:

LEHC Decoded Metar

HUESCA in SPAIN
Report Time2018-08-18 08:00:00
UTC Time2018-08-18 08:17:11
Flight Rules vfr VFR
Wind250° at 06 kt
W.Decomp.*RWY 30: 3.9 kt HW 4.5 kt LCW
W.Rank250° ranks 3
Current wind is below 250° avg. (8.0)
Visibility9999 m
Phenomena:N/A
Clouds:N/A
Expected CloudBase > 2,400 ft AGL from Temp-Dew spread
CeilingNone
Temp16°C (ISA +5)
Dew Point10°C (68% RH)
AAT13.9°C
QNH1022 hPa
Density Alt2,169 ft
Elevation1,768 ft
Report Wrong Elevation
Raw Report
METAR LEHC 180800Z 25006KT 210V290 CAVOK 16/10 Q1022=

Extra information for LEHC:More info

Metar Taf Metar & Taf Last 4 Metars F.Rules Stats Wind Profile Meteogram Temp Stats Airport Information Weather charts Add Link Nearby VenuesMetar ALERT Operation Metar Decoded Social comments